Time;durP1;ratioP1;P1;durP2;ratioP2;P2;SDS_P1;SDS_P2;PMS_P1;PMS_P2;Temp;Humidity;BMP_temperature;BMP_pressure;BME280_temperature;BME280_humidity;BME280_pressure;Samples;Min_cycle;Max_cycle;Signal;HPM_P1;HPM_P2
2021/11/02 00:04:59;;;;;;;5.40;1.08;;;9.00;99.90;;;;;;12301671;28;20051;-86
2021/11/02 00:11:01;;;;;;;5.03;0.90;;;8.90;99.90;;;;;;12302843;28;20097;-85
2021/11/02 00:17:11;;;;;;;6.47;1.00;;;8.90;99.90;;;;;;12299087;28;20202;-85
2021/11/02 00:23:13;;;;;;;5.18;0.90;;;8.90;99.90;;;;;;12306340;28;20630;-87
2021/11/02 00:29:15;;;;;;;4.75;1.15;;;8.80;99.90;;;;;;12336757;28;20047;-87
2021/11/02 00:35:18;;;;;;;2.53;0.77;;;8.80;99.90;;;;;;12303867;28;20130;-87
2021/11/02 00:41:20;;;;;;;6.38;1.05;;;8.80;99.90;;;;;;12301119;28;20149;-85
2021/11/02 00:47:24;;;;;;;8.20;1.10;;;8.70;99.90;;;;;;12305831;28;20059;-87
2021/11/02 00:53:26;;;;;;;;;;;8.70;99.90;;;;;;12304901;28;20054;-87
2021/11/02 00:59:28;;;;;;;3.33;0.98;;;8.60;99.90;;;;;;12304997;28;20061;-84
2021/11/02 01:05:30;;;;;;;4.07;1.05;;;8.50;99.90;;;;;;12303405;28;20047;-85
2021/11/02 01:11:32;;;;;;;6.28;1.20;;;8.50;99.90;;;;;;12302925;28;20125;-86
2021/11/02 01:17:35;;;;;;;5.38;0.98;;;8.40;99.90;;;;;;12302447;28;20102;-87
2021/11/02 01:23:36;;;;;;;4.88;1.17;;;8.40;99.90;;;;;;12299437;28;20052;-85
2021/11/02 01:29:38;;;;;;;5.40;0.80;;;8.40;99.90;;;;;;12309453;28;20435;-87
2021/11/02 01:35:40;;;;;;;7.75;1.65;;;8.30;99.90;;;;;;12311080;28;20061;-86
2021/11/02 01:41:42;;;;;;;6.82;1.00;;;8.40;99.90;;;;;;12308220;28;20042;-86
2021/11/02 01:47:47;;;;;;;5.35;1.25;;;8.30;99.90;;;;;;12312269;28;20117;-86
2021/11/02 01:53:49;;;;;;;5.68;2.72;;;8.30;99.90;;;;;;12303554;28;20050;-85
2021/11/02 01:59:52;;;;;;;5.90;1.27;;;8.20;99.90;;;;;;12278617;28;21755;-87
2021/11/02 02:06:20;;;;;;;5.13;1.25;;;8.10;99.90;;;;;;12309464;28;20125;-85
2021/11/02 02:12:42;;;;;;;7.07;1.75;;;8.00;99.90;;;;;;12303933;28;20548;-85
2021/11/02 02:19:12;;;;;;;4.82;1.45;;;8.10;99.90;;;;;;12324051;28;20148;-85
2021/11/02 02:25:38;;;;;;;7.60;1.40;;;8.00;99.90;;;;;;12304532;28;20113;-86
2021/11/02 02:31:43;;;;;;;8.07;2.05;;;8.00;99.90;;;;;;12301954;28;20054;-85
2021/11/02 02:37:47;;;;;;;6.15;1.63;;;8.00;99.90;;;;;;12303071;28;20054;-86
2021/11/02 02:43:51;;;;;;;6.70;1.40;;;7.90;99.90;;;;;;12302905;28;20101;-87
2021/11/02 02:49:54;;;;;;;9.07;1.20;;;7.90;99.90;;;;;;12333841;28;20114;-86
2021/11/02 02:56:02;;;;;;;6.50;1.30;;;7.90;99.90;;;;;;12298143;28;20047;-87
2021/11/02 03:02:05;;;;;;;4.13;1.20;;;8.00;99.90;;;;;;12308371;28;20062;-86
2021/11/02 03:08:08;;;;;;;5.07;1.60;;;8.00;99.90;;;;;;12305649;28;20086;-86
2021/11/02 03:14:14;;;;;;;6.57;1.40;;;8.00;99.90;;;;;;12334873;28;20554;-85
2021/11/02 03:43:23;;;;;;;7.88;1.40;;;7.90;99.90;;;;;;12292955;28;20046;-87
2021/11/02 04:31:10;;;;;;;2.97;1.10;;;8.30;99.90;;;;;;12193464;29;20051;-88
2021/11/02 04:38:40;;;;;;;6.15;1.13;;;8.40;99.90;;;;;;12301324;28;20053;-88
2021/11/02 05:09:26;;;;;;;5.63;1.10;;;8.30;99.90;;;;;;12308105;28;20065;-86
2021/11/02 05:47:33;;;;;;;8.45;2.60;;;7.80;99.90;;;;;;12315291;28;20059;-86
2021/11/02 05:59:57;;;;;;;6.35;3.05;;;7.80;99.90;;;;;;12321100;28;20050;-86
2021/11/02 06:06:06;;;;;;;9.85;3.08;;;7.60;99.90;;;;;;12308162;28;21440;-87
2021/11/02 06:31:32;;;;;;;12.45;3.53;;;7.90;99.90;;;;;;12305456;28;19933;-84
2021/11/02 06:37:52;;;;;;;8.60;3.40;;;7.90;99.90;;;;;;12300694;28;20047;-85
2021/11/02 07:17:04;;;;;;;8.63;3.97;;;8.10;99.90;;;;;;12303305;28;20042;-84
2021/11/02 07:22:43;;;;;;;7.85;4.68;;;8.20;99.90;;;;;;12297419;28;20142;-84
2021/11/02 08:51:49;;;;;;;7.97;4.38;;;9.60;99.90;;;;;;12296636;28;20046;-85
2021/11/02 08:57:52;;;;;;;8.40;3.97;;;9.90;99.90;;;;;;12298225;28;20630;-85
2021/11/02 09:04:03;;;;;;;8.63;3.47;;;9.80;99.90;;;;;;12291883;28;20133;-85
2021/11/02 09:10:11;;;;;;;8.00;3.70;;;9.70;99.90;;;;;;12307766;28;20416;-84
2021/11/02 09:16:15;;;;;;;7.10;4.05;;;9.80;99.90;;;;;;12304749;28;20589;-85
2021/11/02 09:22:17;;;;;;;11.67;4.53;;;9.90;99.90;;;;;;12294408;28;20053;-85
2021/11/02 09:28:20;;;;;;;10.73;3.50;;;10.00;99.90;;;;;;12290040;28;20061;-84
2021/11/02 09:34:23;;;;;;;6.15;3.45;;;10.00;99.90;;;;;;12292745;28;20649;-85
2021/11/02 09:40:30;;;;;;;9.00;3.70;;;9.80;99.90;;;;;;12297560;28;20047;-85
2021/11/02 09:46:36;;;;;;;11.43;4.20;;;10.10;99.90;;;;;;12304123;28;20054;-85
2021/11/02 09:52:59;;;;;;;10.48;3.75;;;10.10;99.90;;;;;;12301524;28;20074;-85
2021/11/02 09:59:25;;;;;;;6.07;3.50;;;10.00;99.90;;;;;;12308846;28;20783;-84
2021/11/02 10:05:52;;;;;;;7.32;3.40;;;10.20;99.90;;;;;;12309688;28;20054;-84
2021/11/02 10:12:19;;;;;;;7.32;4.03;;;10.60;99.90;;;;;;12312400;28;20187;-84
2021/11/02 10:18:50;;;;;;;8.20;3.92;;;11.00;99.90;;;;;;12306290;28;20062;-85
2021/11/02 10:25:16;;;;;;;6.72;4.78;;;10.70;99.90;;;;;;12349692;28;20054;-84
2021/11/02 10:31:33;;;;;;;12.40;5.00;;;10.50;99.90;;;;;;12309434;28;20055;-85
2021/11/02 10:38:02;;;;;;;8.90;3.47;;;10.50;99.90;;;;;;12322253;28;20063;-85
2021/11/02 10:44:19;;;;;;;8.50;3.97;;;10.50;99.90;;;;;;12320444;28;20059;-84
2021/11/02 10:50:22;;;;;;;7.68;3.10;;;10.70;99.90;;;;;;12305152;28;20062;-85
2021/11/02 10:56:44;;;;;;;9.47;3.07;;;11.00;99.90;;;;;;12325656;28;20087;-85
2021/11/02 11:02:50;;;;;;;9.52;3.50;;;11.30;99.90;;;;;;12294393;28;20050;-84
2021/11/02 11:08:52;;;;;;;5.32;1.92;;;11.60;99.90;;;;;;12295823;28;20058;-84
2021/11/02 11:14:58;;;;;;;8.43;2.13;;;11.90;99.90;;;;;;12298978;28;20499;-85
2021/11/02 11:21:01;;;;;;;9.57;3.10;;;12.30;99.90;;;;;;12336459;28;20049;-85
2021/11/02 11:27:09;;;;;;;9.77;2.90;;;12.10;99.90;;;;;;12330447;28;20057;-85
2021/11/02 11:33:14;;;;;;;4.55;1.50;;;11.70;99.90;;;;;;12305240;28;20459;-85
2021/11/02 11:39:23;;;;;;;9.60;2.78;;;11.40;99.90;;;;;;12295814;28;20058;-85
2021/11/02 11:45:30;;;;;;;10.13;2.47;;;11.70;99.90;;;;;;12315500;28;20089;-85
2021/11/02 11:51:34;;;;;;;8.63;1.95;;;12.20;99.90;;;;;;12328298;28;20065;-84
2021/11/02 11:57:38;;;;;;;8.30;1.80;;;12.30;99.90;;;;;;12303336;28;20066;-84
2021/11/02 12:03:51;;;;;;;5.38;2.30;;;12.40;99.90;;;;;;12295122;28;20158;-85
2021/11/02 12:09:53;;;;;;;6.45;1.75;;;11.90;99.90;;;;;;12300829;28;20067;-85
2021/11/02 12:16:19;;;;;;;5.13;1.80;;;11.70;99.90;;;;;;12299620;28;20085;-85
2021/11/02 12:22:33;;;;;;;8.77;2.13;;;11.70;99.90;;;;;;12303310;28;20047;-84
2021/11/02 12:28:41;;;;;;;7.03;2.15;;;11.50;99.90;;;;;;12298567;28;20109;-85
2021/11/02 12:34:50;;;;;;;8.15;2.10;;;11.40;99.90;;;;;;12297100;28;20479;-85
2021/11/02 12:40:52;;;;;;;7.47;2.80;;;11.30;99.90;;;;;;12290581;28;20164;-85
2021/11/02 12:46:56;;;;;;;5.90;2.25;;;11.40;99.90;;;;;;12315924;28;20058;-84
2021/11/02 12:52:59;;;;;;;6.97;2.53;;;11.70;99.90;;;;;;12325475;28;20058;-85
2021/11/02 12:59:24;;;;;;;8.25;2.92;;;12.00;99.90;;;;;;12306461;28;20055;-85
2021/11/02 13:05:28;;;;;;;6.30;3.20;;;12.20;99.90;;;;;;12299942;28;20047;-85
2021/11/02 13:11:31;;;;;;;6.55;2.67;;;12.00;99.90;;;;;;12327518;28;20158;-84
2021/11/02 13:17:42;;;;;;;6.00;2.83;;;12.30;99.90;;;;;;12324300;28;20119;-85
2021/11/02 13:23:50;;;;;;;5.40;2.85;;;12.30;99.90;;;;;;12310523;28;20054;-85
2021/11/02 13:29:53;;;;;;;4.60;2.85;;;12.20;99.90;;;;;;12309006;28;20054;-85
2021/11/02 13:36:00;;;;;;;4.20;2.40;;;12.20;99.90;;;;;;12303856;28;20043;-85
2021/11/02 13:42:02;;;;;;;7.75;3.13;;;12.20;99.90;;;;;;12332829;28;20047;-85
2021/11/02 13:48:04;;;;;;;7.05;3.05;;;12.30;99.90;;;;;;12305578;28;20050;-85
2021/11/02 13:54:08;;;;;;;8.57;3.30;;;12.20;99.90;;;;;;12303079;28;21837;-85
2021/11/02 14:00:10;;;;;;;6.13;3.27;;;12.20;99.90;;;;;;12300843;28;20560;-85
2021/11/02 14:06:20;;;;;;;6.40;2.92;;;12.00;99.90;;;;;;12307419;28;20147;-85
2021/11/02 14:12:27;;;;;;;6.95;2.50;;;11.80;99.90;;;;;;12304702;28;20637;-84
2021/11/02 14:18:34;;;;;;;3.83;2.30;;;11.70;99.90;;;;;;12340047;28;20063;-84
2021/11/02 14:24:42;;;;;;;6.18;2.40;;;11.60;99.90;;;;;;12306852;28;20594;-85
2021/11/02 14:30:45;;;;;;;5.43;2.10;;;11.30;99.90;;;;;;12305431;28;20096;-85
2021/11/02 14:36:49;;;;;;;5.70;2.58;;;11.40;99.90;;;;;;12302394;28;20086;-84
2021/11/02 14:42:54;;;;;;;7.38;2.45;;;11.30;99.90;;;;;;12306019;28;20116;-84
2021/11/02 14:48:56;;;;;;;6.15;2.90;;;11.30;99.90;;;;;;12309151;28;20058;-84
2021/11/02 14:54:58;;;;;;;5.30;2.92;;;11.20;99.90;;;;;;12332705;28;20575;-85
2021/11/02 15:01:00;;;;;;;8.93;3.42;;;11.00;99.90;;;;;;12303385;28;20447;-85
2021/11/02 15:07:04;;;;;;;7.72;3.30;;;10.90;99.90;;;;;;12309073;28;20054;-84
2021/11/02 15:13:06;;;;;;;6.85;3.60;;;10.80;99.90;;;;;;12295314;28;20078;-85
2021/11/02 15:19:08;;;;;;;8.25;3.80;;;10.80;99.90;;;;;;12303651;28;20461;-85
2021/11/02 15:25:12;;;;;;;6.60;3.30;;;10.70;99.90;;;;;;12336858;28;20046;-85
2021/11/02 15:31:18;;;;;;;6.90;3.30;;;10.70;99.90;;;;;;12341105;28;20310;-85
2021/11/02 15:37:21;;;;;;;5.00;2.38;;;10.60;99.90;;;;;;12347449;28;20055;-85
2021/11/02 15:43:23;;;;;;;4.50;2.40;;;10.60;99.90;;;;;;12304543;28;20054;-85
2021/11/02 15:49:25;;;;;;;6.85;2.30;;;10.30;99.90;;;;;;12303336;28;20400;-84
2021/11/02 15:55:28;;;;;;;9.93;2.53;;;10.00;99.90;;;;;;12301630;28;20549;-84
2021/11/02 16:01:50;;;;;;;5.78;2.15;;;9.90;99.90;;;;;;12298708;28;20182;-85
2021/11/02 16:08:00;;;;;;;6.50;2.65;;;9.70;99.90;;;;;;12311068;28;20551;-84
2021/11/02 16:14:06;;;;;;;4.45;2.50;;;9.40;99.90;;;;;;12296027;28;20053;-85
2021/11/02 16:20:14;;;;;;;6.38;2.55;;;9.30;99.90;;;;;;12328142;28;20135;-86
2021/11/02 16:26:26;;;;;;;8.13;2.63;;;9.10;99.90;;;;;;12294395;28;20055;-85
2021/11/02 16:32:35;;;;;;;10.23;3.40;;;9.10;99.90;;;;;;12330191;28;20531;-85
2021/11/02 16:38:38;;;;;;;6.53;3.42;;;9.10;99.90;;;;;;12300294;28;20069;-85
2021/11/02 16:44:40;;;;;;;9.30;3.53;;;9.10;99.90;;;;;;12305336;28;20550;-85
2021/11/02 16:50:42;;;;;;;9.85;4.07;;;9.00;99.90;;;;;;12301804;28;20360;-86
2021/11/02 16:57:05;;;;;;;11.57;5.43;;;9.10;99.90;;;;;;12298196;28;20051;-86
2021/11/02 17:03:09;;;;;;;8.95;4.40;;;9.00;99.90;;;;;;12316641;28;20046;-86
2021/11/02 17:09:14;;;;;;;10.15;3.83;;;9.00;99.90;;;;;;12347528;28;20705;-86
2021/11/02 17:15:21;;;;;;;10.55;4.03;;;8.90;99.90;;;;;;12313202;28;20082;-86
2021/11/02 17:21:25;;;;;;;6.40;3.90;;;8.90;99.90;;;;;;12312698;28;20052;-86
2021/11/02 17:27:27;;;;;;;9.98;4.40;;;8.80;99.90;;;;;;12314577;28;20058;-86
2021/11/02 17:33:33;;;;;;;7.28;3.60;;;8.80;99.90;;;;;;12310804;28;20136;-86
2021/11/02 17:39:36;;;;;;;7.80;3.38;;;8.90;99.90;;;;;;12313246;28;20062;-86
2021/11/02 17:45:38;;;;;;;9.27;3.35;;;9.00;99.90;;;;;;12306084;28;20055;-86
2021/11/02 17:51:44;;;;;;;7.43;2.55;;;9.00;99.90;;;;;;12309829;28;20729;-87
2021/11/02 17:57:48;;;;;;;6.57;2.22;;;9.00;99.90;;;;;;12301811;28;20058;-86
2021/11/02 18:03:51;;;;;;;4.23;2.00;;;9.00;99.90;;;;;;12310578;28;20116;-86
2021/11/02 18:09:54;;;;;;;4.65;1.80;;;9.00;99.90;;;;;;12341163;28;20475;-86
2021/11/02 18:15:59;;;;;;;5.50;2.00;;;8.80;99.90;;;;;;12307002;28;20051;-86
2021/11/02 18:22:03;;;;;;;5.65;1.85;;;8.80;99.90;;;;;;12307333;28;20100;-86
2021/11/02 18:28:05;;;;;;;4.30;1.92;;;8.80;99.90;;;;;;12338903;28;20508;-86
2021/11/02 18:34:07;;;;;;;4.72;1.48;;;8.80;99.90;;;;;;12305255;28;20159;-87
2021/11/02 18:40:12;;;;;;;5.45;1.60;;;8.80;99.90;;;;;;12308184;28;20050;-86
2021/11/02 18:46:14;;;;;;;5.95;1.70;;;8.80;99.90;;;;;;12326669;28;20430;-86
2021/11/02 18:52:17;;;;;;;3.65;1.60;;;8.90;99.90;;;;;;12309756;28;20054;-86
2021/11/02 18:58:23;;;;;;;4.45;1.83;;;8.90;99.90;;;;;;12318673;28;20047;-87
2021/11/02 19:04:25;;;;;;;4.25;1.80;;;8.90;99.90;;;;;;12344285;28;20050;-86
2021/11/02 19:10:26;;;;;;;9.13;2.00;;;9.00;99.90;;;;;;12308381;28;20593;-86
2021/11/02 19:16:28;;;;;;;6.38;2.10;;;9.00;99.90;;;;;;12303512;28;20211;-86
2021/11/02 19:22:30;;;;;;;5.88;1.65;;;9.00;99.90;;;;;;12305308;28;20495;-86
2021/11/02 19:28:32;;;;;;;5.88;1.70;;;9.00;99.90;;;;;;12303005;28;20141;-85
2021/11/02 19:34:35;;;;;;;5.00;1.58;;;9.00;99.90;;;;;;12332358;28;20057;-87
2021/11/02 19:40:38;;;;;;;4.10;1.80;;;9.00;99.90;;;;;;12300752;28;20130;-86
2021/11/02 19:46:41;;;;;;;5.20;2.08;;;9.00;99.90;;;;;;12335200;28;20499;-86
2021/11/02 19:52:44;;;;;;;6.85;1.80;;;9.00;99.90;;;;;;12296284;28;20060;-87
2021/11/02 19:58:47;;;;;;;5.20;1.67;;;9.00;99.90;;;;;;12307560;28;20073;-87
2021/11/02 20:04:49;;;;;;;3.90;1.55;;;9.00;99.90;;;;;;12334759;28;20133;-85
2021/11/02 20:10:52;;;;;;;3.42;1.60;;;9.00;99.90;;;;;;12329201;28;20050;-85
2021/11/02 20:16:58;;;;;;;4.80;1.88;;;9.00;99.90;;;;;;12303723;28;20662;-85
2021/11/02 20:23:00;;;;;;;;;;;9.00;99.90;;;;;;12333831;28;20073;-85
2021/11/02 20:29:03;;;;;;;3.10;1.42;;;8.90;99.90;;;;;;12302830;28;19933;-85
2021/11/02 20:35:06;;;;;;;2.65;1.52;;;9.00;99.90;;;;;;12298608;28;20047;-85
2021/11/02 20:41:17;;;;;;;3.00;1.73;;;9.00;99.90;;;;;;12303028;28;20047;-85
2021/11/02 20:47:20;;;;;;;5.60;1.90;;;9.00;99.90;;;;;;12333856;28;20050;-87
2021/11/02 20:53:25;;;;;;;5.65;1.80;;;9.00;99.90;;;;;;12331715;28;20050;-85
2021/11/02 20:59:28;;;;;;;4.68;2.00;;;8.90;99.90;;;;;;12305605;28;20055;-86
2021/11/02 21:05:30;;;;;;;7.15;1.98;;;9.00;99.90;;;;;;12302872;28;20068;-87
2021/11/02 21:11:36;;;;;;;6.88;2.15;;;8.90;99.90;;;;;;12294764;28;20393;-87
2021/11/02 21:17:39;;;;;;;6.63;2.08;;;9.00;99.90;;;;;;12335893;28;20057;-86
2021/11/02 21:23:48;;;;;;;7.57;2.38;;;9.00;99.90;;;;;;12300730;28;20420;-85
2021/11/02 21:29:52;;;;;;;3.83;2.67;;;9.00;99.90;;;;;;12305955;28;20868;-86
2021/11/02 21:35:58;;;;;;;5.73;3.80;;;9.00;99.90;;;;;;12299395;28;20051;-85
2021/11/02 21:42:03;;;;;;;6.75;4.72;;;8.90;99.90;;;;;;12304616;28;20517;-85
2021/11/02 21:48:19;;;;;;;9.98;5.65;;;9.00;99.90;;;;;;12309764;28;20945;-85
2021/11/02 21:54:25;;;;;;;9.43;6.38;;;9.00;99.90;;;;;;12340176;28;20043;-86
2021/11/02 22:00:28;;;;;;;12.60;8.13;;;8.90;99.90;;;;;;12343391;28;20055;-86
2021/11/02 22:06:34;;;;;;;13.10;9.73;;;9.00;99.90;;;;;;12310036;28;20051;-86
2021/11/02 22:12:37;;;;;;;12.95;9.77;;;9.00;99.90;;;;;;12341489;28;20086;-86
2021/11/02 22:18:41;;;;;;;14.02;9.30;;;8.80;99.90;;;;;;12310044;28;20538;-86
2021/11/02 22:24:43;;;;;;;13.27;9.90;;;8.80;99.90;;;;;;12309324;28;20354;-85
2021/11/02 22:30:48;;;;;;;15.27;10.88;;;8.60;99.90;;;;;;12305285;28;20047;-86
2021/11/02 22:36:51;;;;;;;14.50;10.25;;;8.60;99.90;;;;;;12308718;28;20100;-87
2021/11/02 22:42:53;;;;;;;15.98;10.82;;;8.60;99.90;;;;;;12309640;28;20051;-86
2021/11/02 22:48:55;;;;;;;17.25;11.05;;;8.50;99.90;;;;;;12317202;28;20113;-86
2021/11/02 22:54:57;;;;;;;17.27;11.40;;;8.40;99.90;;;;;;12309744;28;20085;-86
2021/11/02 23:01:00;;;;;;;17.40;12.05;;;8.40;99.90;;;;;;12319404;28;20877;-87
2021/11/02 23:07:02;;;;;;;17.17;11.25;;;8.20;99.90;;;;;;12306150;28;20062;-87
2021/11/02 23:13:06;;;;;;;19.30;13.45;;;8.20;99.90;;;;;;12305568;28;20101;-87
2021/11/02 23:19:10;;;;;;;19.73;13.07;;;8.10;99.90;;;;;;12309725;28;20054;-87
2021/11/02 23:25:30;;;;;;;20.50;12.77;;;8.00;99.90;;;;;;12305189;28;20050;-87
2021/11/02 23:31:34;;;;;;;19.63;13.23;;;8.00;99.90;;;;;;12306018;28;20051;-86
2021/11/02 23:37:36;;;;;;;22.47;13.60;;;8.00;99.90;;;;;;12321493;28;20085;-86
2021/11/02 23:43:39;;;;;;;21.23;13.30;;;8.00;99.90;;;;;;12303965;28;20157;-85
2021/11/02 23:49:45;;;;;;;20.00;12.95;;;7.90;99.90;;;;;;12306552;28;20051;-85
2021/11/02 23:55:47;;;;;;;23.40;13.77;;;7.80;99.90;;;;;;12306605;28;20480;-86
